createdAt,value
2023-04-28T00:00:51.793Z,101520.45
2023-04-28T00:03:32.249Z,101520.38
2023-04-28T00:06:05.812Z,101520.23
2023-04-28T00:08:47.824Z,101518.23
2023-04-28T00:11:20.902Z,101520.33
2023-04-28T00:13:56.535Z,101517.98
2023-04-28T00:16:28.780Z,101522.37
2023-04-28T00:19:10.177Z,101523.48
2023-04-28T00:21:43.405Z,101525.41
2023-04-28T00:24:15.969Z,101530.89
2023-04-28T00:26:48.045Z,101528.48
2023-04-28T00:29:21.280Z,101534.49
2023-04-28T00:31:53.892Z,101528.20
2023-04-28T00:34:27.097Z,101531.77
2023-04-28T00:36:59.850Z,101533.54
2023-04-28T00:39:32.184Z,101539.19
2023-04-28T00:42:05.730Z,101538.27
2023-04-28T00:44:36.072Z,101540.44
2023-04-28T00:47:07.462Z,101537.73
2023-04-28T00:49:41.086Z,101537.96
2023-04-28T00:52:14.183Z,101539.55
2023-04-28T00:54:47.895Z,101540.05
2023-04-28T00:57:20.393Z,101539.81
2023-04-28T00:59:56.445Z,101541.04
2023-04-28T01:02:30.779Z,101541.57
2023-04-28T01:05:04.479Z,101541.35
2023-04-28T01:07:37.239Z,101539.88
2023-04-28T01:10:29.194Z,101541.89
2023-04-28T01:13:02.574Z,101541.65
2023-04-28T01:15:35.057Z,101543.38
2023-04-28T01:18:09.405Z,101539.58
2023-04-28T01:20:42.718Z,101538.09
2023-04-28T01:23:16.431Z,101541.98
2023-04-28T01:25:50.131Z,101540.90
2023-04-28T01:28:23.395Z,101545.48
2023-04-28T01:31:00.207Z,101546.65
2023-04-28T01:33:33.712Z,101547.40
2023-04-28T01:36:09.072Z,101547.27
2023-04-28T01:38:43.938Z,101543.48
2023-04-28T01:41:19.235Z,101539.95
2023-04-28T01:43:52.885Z,101542.12
2023-04-28T01:46:25.182Z,101540.25
2023-04-28T01:48:59.066Z,101541.53
2023-04-28T01:51:34.378Z,101543.77
2023-04-28T01:54:09.127Z,101543.52
2023-04-28T01:56:41.004Z,101538.41
2023-04-28T01:59:15.159Z,101537.12
2023-04-28T02:01:48.876Z,101535.70
2023-04-28T02:04:24.153Z,101536.59
2023-04-28T02:06:57.020Z,101538.73
2023-04-28T02:09:31.928Z,101538.54
2023-04-28T02:12:04.826Z,101535.68
2023-04-28T02:14:39.830Z,101537.04
2023-04-28T02:17:14.144Z,101535.10
2023-04-28T02:19:47.234Z,101535.89
2023-04-28T02:22:20.336Z,101536.71
2023-04-28T02:24:56.150Z,101541.47
2023-04-28T02:27:38.474Z,101545.67
2023-04-28T02:30:14.728Z,101547.70
2023-04-28T02:32:51.106Z,101549.73
2023-04-28T02:35:25.664Z,101548.61
2023-04-28T02:37:56.979Z,101545.91
2023-04-28T02:40:30.468Z,101545.84
2023-04-28T02:43:04.292Z,101546.55
2023-04-28T02:45:36.266Z,101546.42
2023-04-28T02:48:07.294Z,101547.72
2023-04-28T02:50:42.879Z,101552.10
2023-04-28T02:53:15.399Z,101550.09
2023-04-28T02:55:48.498Z,101545.40
2023-04-28T02:58:21.417Z,101541.60
2023-04-28T03:00:55.232Z,101541.09
2023-04-28T03:03:28.218Z,101541.45
2023-04-28T03:06:06.172Z,101541.48
2023-04-28T03:08:40.617Z,101545.05
2023-04-28T03:11:16.929Z,101543.86
2023-04-28T03:13:54.964Z,101542.57
2023-04-28T03:16:28.496Z,101543.66
2023-04-28T03:19:03.678Z,101546.23
2023-04-28T03:21:40.161Z,101546.42
2023-04-28T03:24:18.112Z,101542.39
2023-04-28T03:26:50.600Z,101540.43
2023-04-28T03:29:23.849Z,101542.14
2023-04-28T03:31:58.128Z,101538.83
2023-04-28T03:34:32.029Z,101543.23
2023-04-28T03:37:05.083Z,101550.11
2023-04-28T03:39:35.912Z,101549.11
2023-04-28T03:42:09.701Z,101545.64
2023-04-28T03:45:04.612Z,101547.23
2023-04-28T03:47:36.515Z,101550.98
2023-04-28T03:50:13.053Z,101548.52
2023-04-28T03:52:46.708Z,101552.94
2023-04-28T03:55:21.548Z,101554.08
2023-04-28T03:57:56.172Z,101559.76
2023-04-28T04:00:32.443Z,101558.30
2023-04-28T04:03:05.276Z,101556.19
2023-04-28T04:05:41.124Z,101557.57
2023-04-28T04:08:16.483Z,101553.14
2023-04-28T04:10:53.052Z,101555.45
2023-04-28T04:13:26.846Z,101560.71
2023-04-28T04:16:00.817Z,101561.08
2023-04-28T04:18:32.952Z,101559.04
2023-04-28T04:21:30.669Z,101558.46
2023-04-28T04:24:04.015Z,101562.79
2023-04-28T04:26:39.701Z,101561.30
2023-04-28T04:29:28.291Z,101560.83
2023-04-28T04:32:02.251Z,101558.05
2023-04-28T04:34:36.607Z,101558.97
2023-04-28T04:37:09.507Z,101561.54
2023-04-28T04:39:46.249Z,101560.53
2023-04-28T04:42:25.396Z,101561.36
2023-04-28T04:45:28.233Z,101560.92
2023-04-28T04:48:02.042Z,101563.27
2023-04-28T04:50:37.012Z,101559.14
2023-04-28T04:53:14.783Z,101558.34
2023-04-28T04:55:48.410Z,101556.77
2023-04-28T04:58:23.878Z,101556.40
2023-04-28T05:01:29.287Z,101560.16
2023-04-28T05:04:03.073Z,101562.56
2023-04-28T05:06:36.679Z,101563.92
2023-04-28T05:09:09.666Z,101562.44
2023-04-28T05:11:46.747Z,101558.20
2023-04-28T05:14:20.143Z,101561.34
2023-04-28T05:16:57.562Z,101559.88
2023-04-28T05:19:37.812Z,101559.83
2023-04-28T05:22:10.153Z,101555.57
2023-04-28T05:24:43.274Z,101555.57
2023-04-28T05:27:16.801Z,101555.19
2023-04-28T05:29:49.813Z,101557.97
2023-04-28T05:32:22.487Z,101555.97
2023-04-28T05:35:01.839Z,101556.70
2023-04-28T05:37:34.674Z,101560.68
2023-04-28T05:40:13.880Z,101563.89
2023-04-28T05:42:57.055Z,101567.73
2023-04-28T05:45:32.229Z,101563.56
2023-04-28T05:48:07.198Z,101562.69
2023-04-28T05:50:41.547Z,101561.08
2023-04-28T05:53:21.365Z,101563.46
2023-04-28T05:55:54.142Z,101562.88
2023-04-28T05:58:25.110Z,101561.98
2023-04-28T06:01:00.436Z,101565.41
2023-04-28T06:03:32.539Z,101567.55
2023-04-28T06:06:09.947Z,101564.98
2023-04-28T06:08:47.358Z,101561.38
2023-04-28T06:11:22.501Z,101559.61
2023-04-28T06:13:55.671Z,101556.69
2023-04-28T06:16:33.477Z,101554.20
2023-04-28T06:19:12.232Z,101553.04
2023-04-28T06:21:47.461Z,101550.04
2023-04-28T06:24:19.684Z,101549.81
2023-04-28T06:26:54.830Z,101545.91
2023-04-28T06:29:28.098Z,101544.58
2023-04-28T06:32:02.030Z,101546.64
2023-04-28T06:34:34.007Z,101543.52
2023-04-28T06:37:07.660Z,101540.58
2023-04-28T06:39:39.971Z,101539.56
2023-04-28T06:42:11.703Z,101541.52
2023-04-28T06:44:48.418Z,101535.93
2023-04-28T06:47:18.951Z,101531.80
2023-04-28T06:49:54.236Z,101532.73
2023-04-28T06:52:38.434Z,101532.91
2023-04-28T06:55:17.268Z,101529.20
2023-04-28T06:57:52.521Z,101529.44
2023-04-28T07:00:29.184Z,101523.42
2023-04-28T07:03:00.980Z,101525.17
2023-04-28T07:05:34.317Z,101525.27
2023-04-28T07:08:09.781Z,101522.70
2023-04-28T07:10:42.782Z,101524.19
2023-04-28T07:13:14.932Z,101519.88
2023-04-28T07:15:47.372Z,101517.84
2023-04-28T07:18:22.710Z,101510.92
2023-04-28T07:20:58.796Z,101506.77
2023-04-28T07:23:32.607Z,101503.20
2023-04-28T07:26:05.588Z,101503.88
2023-04-28T07:28:37.279Z,101501.20
2023-04-28T07:31:10.943Z,101497.20
2023-04-28T07:33:43.843Z,101493.85
2023-04-28T07:36:32.247Z,101484.98
2023-04-28T07:39:04.107Z,101483.70
2023-04-28T07:41:40.668Z,101479.96
2023-04-28T07:44:12.949Z,101474.15
2023-04-28T07:46:46.693Z,101470.18
2023-04-28T07:49:19.377Z,101470.39
2023-04-28T07:51:55.556Z,101472.85
2023-04-28T07:54:37.006Z,101470.48
2023-04-28T07:57:10.360Z,101467.44
2023-04-28T07:59:43.020Z,101466.42
2023-04-28T08:02:15.638Z,101464.39
2023-04-28T08:04:50.194Z,101462.13
2023-04-28T08:07:25.146Z,101459.58
2023-04-28T08:10:15.438Z,101462.90
2023-04-28T08:12:47.657Z,101459.41
2023-04-28T08:15:20.113Z,101458.16
2023-04-28T08:17:56.456Z,101462.25
2023-04-28T08:20:33.298Z,101462.27
2023-04-28T08:23:05.240Z,101461.57
2023-04-28T08:25:37.627Z,101460.38
2023-04-28T08:28:10.544Z,101452.23
2023-04-28T08:30:46.314Z,101448.36
2023-04-28T08:33:20.488Z,101442.60
2023-04-28T08:35:55.740Z,101444.36
2023-04-28T08:38:30.518Z,101442.84
2023-04-28T08:41:05.742Z,101434.19
2023-04-28T08:43:37.969Z,101430.59
2023-04-28T08:46:10.144Z,101426.59
2023-04-28T08:48:47.113Z,101427.45
2023-04-28T08:51:27.302Z,101427.56
2023-04-28T08:56:46.133Z,101425.98
2023-04-28T08:59:20.367Z,101422.05
2023-04-28T09:01:59.996Z,101423.61
2023-04-28T09:04:33.854Z,101418.84
2023-04-28T09:07:13.226Z,101414.84
2023-04-28T09:09:47.208Z,101413.80
2023-04-28T09:12:24.461Z,101408.63
2023-04-28T09:15:09.282Z,101405.39
2023-04-28T09:17:51.750Z,101395.52
2023-04-28T09:20:26.267Z,101400.95
2023-04-28T09:23:15.440Z,101397.56
2023-04-28T09:26:02.023Z,101389.45
2023-04-28T09:28:35.094Z,101383.77
2023-04-28T09:31:07.251Z,101394.05
2023-04-28T09:33:58.383Z,101386.45
2023-04-28T09:36:34.427Z,101390.94
2023-04-28T09:39:08.205Z,101384.18
2023-04-28T09:41:41.118Z,101383.58
2023-04-28T09:44:15.569Z,101381.05
2023-04-28T09:46:49.761Z,101383.55
2023-04-28T09:49:23.344Z,101380.72
2023-04-28T09:52:13.903Z,101377.34
2023-04-28T09:54:45.465Z,101374.02
2023-04-28T09:57:19.818Z,101368.74
2023-04-28T09:59:55.368Z,101361.18
2023-04-28T10:05:25.172Z,101366.27
2023-04-28T10:08:00.305Z,101363.16
2023-04-28T10:10:32.622Z,101356.34
2023-04-28T10:13:04.748Z,101358.60
2023-04-28T10:15:38.847Z,101352.65
2023-04-28T10:18:13.303Z,101352.63
2023-04-28T10:20:48.279Z,101349.98
2023-04-28T10:23:57.251Z,101348.34
2023-04-28T10:26:54.547Z,101345.41
2023-04-28T10:29:30.112Z,101338.91
2023-04-28T10:32:26.497Z,101336.61
2023-04-28T10:35:37.280Z,101330.36
2023-04-28T10:38:12.439Z,101331.52
2023-04-28T10:40:46.746Z,101328.61
2023-04-28T10:43:40.358Z,101322.75
2023-04-28T10:46:14.324Z,101322.35
2023-04-28T10:48:59.752Z,101318.58
2023-04-28T10:51:45.372Z,101317.61
2023-04-28T10:54:20.834Z,101309.48
2023-04-28T10:57:24.931Z,101307.66
2023-04-28T11:00:36.519Z,101301.33
2023-04-28T11:03:07.539Z,101303.67
2023-04-28T11:05:40.264Z,101297.30
2023-04-28T11:08:35.611Z,101295.24
2023-04-28T11:12:04.376Z,101288.97
2023-04-28T11:14:40.009Z,101285.30
2023-04-28T11:17:13.806Z,101290.06
2023-04-28T11:19:49.179Z,101290.27
2023-04-28T11:22:24.843Z,101290.20
2023-04-28T11:25:01.398Z,101289.65
2023-04-28T11:27:35.152Z,101287.45
2023-04-28T11:30:26.143Z,101283.55
2023-04-28T11:32:59.097Z,101278.98
2023-04-28T11:35:47.476Z,101280.73
2023-04-28T11:38:19.410Z,101275.69
2023-04-28T11:41:00.863Z,101275.63
2023-04-28T11:43:44.024Z,101278.71
2023-04-28T11:46:23.060Z,101281.84
2023-04-28T11:49:07.434Z,101276.60
2023-04-28T11:51:40.879Z,101272.86
2023-04-28T11:54:16.667Z,101269.46
2023-04-28T11:56:54.768Z,101271.02
2023-04-28T11:59:31.117Z,101272.84
2023-04-28T12:02:04.208Z,101261.90
2023-04-28T12:04:39.237Z,101259.11
2023-04-28T12:07:16.013Z,101257.65
2023-04-28T12:09:49.461Z,101260.23
2023-04-28T12:15:25.462Z,101253.02
2023-04-28T12:18:10.253Z,101250.91
2023-04-28T12:20:43.295Z,101248.61
2023-04-28T12:23:16.514Z,101249.85
2023-04-28T12:25:48.864Z,101244.06
2023-04-28T12:28:20.952Z,101245.52
2023-04-28T12:31:04.273Z,101240.09
2023-04-28T12:33:38.689Z,101238.36
2023-04-28T12:36:10.507Z,101238.50
2023-04-28T12:38:50.840Z,101234.25
2023-04-28T12:41:24.814Z,101231.17
2023-04-28T12:43:56.757Z,101223.34
2023-04-28T12:46:31.623Z,101218.87
2023-04-28T12:49:04.860Z,101209.30
2023-04-28T12:51:39.932Z,101209.44
2023-04-28T12:54:12.309Z,101206.70
2023-04-28T12:56:45.082Z,101201.36
2023-04-28T12:59:18.600Z,101201.66
2023-04-28T13:01:52.722Z,101197.59
2023-04-28T13:04:26.769Z,101200.38
2023-04-28T13:07:00.635Z,101196.14
2023-04-28T13:09:34.217Z,101192.56
2023-04-28T13:12:08.005Z,101189.11
2023-04-28T13:14:40.747Z,101184.27
2023-04-28T13:17:14.588Z,101182.12
2023-04-28T13:19:50.722Z,101180.05
2023-04-28T13:22:24.039Z,101181.85
2023-04-28T13:24:56.489Z,101172.80
2023-04-28T13:27:30.546Z,101171.78
2023-04-28T13:30:05.520Z,101169.36
2023-04-28T13:32:40.038Z,101166.60
2023-04-28T13:35:12.697Z,101162.22
2023-04-28T13:37:49.112Z,101159.98
2023-04-28T13:40:21.088Z,101153.92
2023-04-28T13:42:55.359Z,101139.91
2023-04-28T13:45:31.108Z,101138.05
2023-04-28T13:48:27.516Z,101136.77
2023-04-28T13:50:59.901Z,101129.77
2023-04-28T13:53:33.237Z,101124.70
2023-04-28T13:56:09.066Z,101117.40
2023-04-28T13:58:44.181Z,101116.70
2023-04-28T14:01:16.184Z,101123.43
2023-04-28T14:03:51.772Z,101120.34
2023-04-28T14:06:23.756Z,101115.85
2023-04-28T14:09:20.251Z,101108.69
2023-04-28T14:12:00.698Z,101108.09
2023-04-28T14:14:40.438Z,101097.91
2023-04-28T14:17:17.213Z,101101.30
2023-04-28T14:19:53.695Z,101099.41
2023-04-28T14:22:31.047Z,101098.70
2023-04-28T14:25:03.424Z,101099.55
2023-04-28T14:27:36.020Z,101090.95
2023-04-28T14:30:12.054Z,101088.52
2023-04-28T14:32:43.459Z,101084.94
2023-04-28T14:35:20.463Z,101084.20
2023-04-28T14:37:54.686Z,101081.42
2023-04-28T14:40:27.145Z,101089.31
2023-04-28T14:42:59.202Z,101089.99
2023-04-28T14:45:36.176Z,101079.67
2023-04-28T14:48:10.706Z,101080.95
2023-04-28T15:08:07.854Z,101065.86
2023-04-28T15:10:42.977Z,101057.20
2023-04-28T15:13:40.436Z,101058.67
2023-04-28T15:16:13.478Z,101059.33
2023-04-28T15:18:48.633Z,101057.20
2023-04-28T15:21:23.256Z,101053.19
2023-04-28T15:23:57.047Z,101049.38
2023-04-28T15:26:33.909Z,101045.17
2023-04-28T15:29:06.891Z,101044.09
2023-04-28T15:31:41.288Z,101041.16
2023-04-28T15:34:18.715Z,101040.27
2023-04-28T15:36:49.741Z,101043.52
2023-04-28T15:39:22.218Z,101037.58
2023-04-28T15:41:54.528Z,101036.26
2023-04-28T15:44:28.062Z,101034.75
2023-04-28T15:47:07.246Z,101035.81
2023-04-28T15:49:41.184Z,101033.89
2023-04-28T15:52:13.992Z,101035.70
2023-04-28T15:54:47.310Z,101032.14
2023-04-28T15:57:17.660Z,101028.33
2023-04-28T15:59:52.219Z,101027.90
2023-04-28T16:02:25.691Z,101027.95
2023-04-28T16:05:00.227Z,101028.47
2023-04-28T16:07:37.680Z,101025.14
2023-04-28T16:10:13.122Z,101024.90
2023-04-28T16:12:44.863Z,101017.85
2023-04-28T16:15:17.854Z,101019.09
2023-04-28T16:17:53.065Z,101012.74
2023-04-28T16:20:27.041Z,101011.55
2023-04-28T16:22:58.650Z,101006.16
2023-04-28T16:25:31.841Z,101003.18
2023-04-28T16:28:07.658Z,101001.43
2023-04-28T16:30:42.103Z,100999.09
2023-04-28T16:33:13.965Z,100997.24
2023-04-28T16:35:55.691Z,100993.48
2023-04-28T16:38:25.676Z,100991.80
2023-04-28T16:40:58.420Z,100984.89
2023-04-28T16:43:30.115Z,100986.98
2023-04-28T16:46:01.658Z,100984.77
2023-04-28T16:48:33.877Z,100983.41
2023-04-28T16:51:10.041Z,100979.95
2023-04-28T16:53:44.168Z,100975.32
2023-04-28T16:56:17.166Z,100973.48
2023-04-28T16:58:50.240Z,100971.33
2023-04-28T17:01:22.753Z,100970.03
2023-04-28T17:03:55.722Z,100971.75
2023-04-28T17:06:29.648Z,100970.85
2023-04-28T17:09:03.921Z,100970.02
2023-04-28T17:11:37.145Z,100968.48
2023-04-28T17:14:10.021Z,100975.36
2023-04-28T17:16:43.619Z,100971.98
2023-04-28T17:19:17.222Z,100971.63
2023-04-28T17:21:49.453Z,100971.41
2023-04-28T17:24:25.939Z,100973.91
2023-04-28T17:26:58.680Z,100973.00
2023-04-28T17:29:30.482Z,100972.35
2023-04-28T17:32:04.396Z,100968.27
2023-04-28T17:34:36.032Z,100966.09
2023-04-28T17:37:08.494Z,100969.02
2023-04-28T17:39:39.253Z,100968.88
2023-04-28T17:42:12.400Z,100963.81
2023-04-28T17:44:44.405Z,100966.88
2023-04-28T17:47:18.915Z,100970.95
2023-04-28T17:49:52.702Z,100969.21
2023-04-28T17:52:32.596Z,100962.64
2023-04-28T17:55:05.640Z,100964.38
2023-04-28T17:57:39.118Z,100965.96
2023-04-28T18:00:13.006Z,100967.40
2023-04-28T18:02:44.147Z,100964.34
2023-04-28T18:05:17.083Z,100959.35
2023-04-28T18:07:54.001Z,100960.93
2023-04-28T18:10:28.193Z,100963.70
2023-04-28T18:13:07.060Z,100964.05
2023-04-28T18:15:58.242Z,100966.27
2023-04-28T18:18:35.604Z,100964.44
2023-04-28T18:21:14.924Z,100964.13
2023-04-28T18:23:49.033Z,100969.23
2023-04-28T18:26:22.931Z,100969.29
2023-04-28T18:28:54.980Z,100970.52
2023-04-28T18:31:27.853Z,100972.36
2023-04-28T18:34:01.063Z,100967.71
2023-04-28T18:36:39.704Z,100971.86
2023-04-28T18:39:12.080Z,100973.57
2023-04-28T18:41:44.309Z,100976.27
2023-04-28T18:44:19.073Z,100976.58
2023-04-28T18:46:52.408Z,100976.48
2023-04-28T18:49:25.977Z,100976.33
2023-04-28T18:52:02.813Z,100974.88
2023-04-28T18:54:34.688Z,100973.21
2023-04-28T18:57:07.935Z,100977.90
2023-04-28T18:59:41.814Z,100977.98
2023-04-28T19:02:18.757Z,100977.25
2023-04-28T19:04:52.353Z,100978.41
2023-04-28T19:07:24.680Z,100979.27
2023-04-28T19:09:55.215Z,100975.42
2023-04-28T19:12:27.863Z,100973.76
2023-04-28T19:14:59.609Z,100977.06
2023-04-28T19:17:42.167Z,100981.34
2023-04-28T19:20:14.252Z,100978.15
2023-04-28T19:22:49.049Z,100978.36
2023-04-28T19:25:25.467Z,100980.60
2023-04-28T19:28:02.074Z,100983.38
2023-04-28T19:30:33.547Z,100984.00
2023-04-28T19:33:05.815Z,100978.04
2023-04-28T19:35:37.725Z,100977.22
2023-04-28T19:38:10.792Z,100977.88
2023-04-28T19:40:42.473Z,100978.64
2023-04-28T19:43:16.074Z,100978.14
2023-04-28T19:45:48.790Z,100979.56
2023-04-28T19:48:21.305Z,100978.41
2023-04-28T19:50:52.641Z,100976.81
2023-04-28T19:53:34.883Z,100977.73
2023-04-28T19:56:07.805Z,100979.75
2023-04-28T19:58:43.754Z,100977.98
2023-04-28T20:01:18.096Z,100976.72
2023-04-28T20:03:56.241Z,100973.70
2023-04-28T20:06:26.344Z,100977.83
2023-04-28T20:09:01.152Z,100976.45
2023-04-28T20:11:34.533Z,100977.74
2023-04-28T20:14:12.245Z,100976.16
2023-04-28T20:16:46.030Z,100973.39
2023-04-28T20:19:20.113Z,100971.45
2023-04-28T20:21:53.270Z,100975.35
2023-04-28T20:24:24.782Z,100977.66
2023-04-28T20:26:59.092Z,100980.06
2023-04-28T20:29:31.461Z,100977.48
2023-04-28T20:32:04.257Z,100978.02
2023-04-28T20:34:36.706Z,100977.23
2023-04-28T20:37:07.707Z,100977.19
2023-04-28T20:39:41.095Z,100977.48
2023-04-28T20:42:18.157Z,100974.29
2023-04-28T20:44:52.270Z,100972.67
2023-04-28T20:47:25.020Z,100971.34
2023-04-28T20:49:57.777Z,100970.55
2023-04-28T20:52:31.718Z,100965.69
2023-04-28T20:55:04.871Z,100968.00
2023-04-28T20:57:53.499Z,100966.44
2023-04-28T21:00:26.553Z,100961.00
2023-04-28T21:02:57.853Z,100959.48
2023-04-28T21:05:31.299Z,100963.30
2023-04-28T21:08:08.172Z,100964.38
2023-04-28T21:10:41.089Z,100962.46
2023-04-28T21:13:16.037Z,100963.02
2023-04-28T21:15:47.294Z,100960.89
2023-04-28T21:18:22.864Z,100957.75
2023-04-28T21:20:58.370Z,100956.87
2023-04-28T21:23:39.733Z,100947.81
2023-04-28T21:26:17.485Z,100948.83
2023-04-28T21:29:11.947Z,100946.75
2023-04-28T21:31:44.505Z,100939.59
2023-04-28T21:34:18.341Z,100939.03
2023-04-28T21:36:51.377Z,100938.72
2023-04-28T21:39:27.316Z,100933.98
2023-04-28T21:42:00.831Z,100932.36
2023-04-28T21:44:32.372Z,100931.36
2023-04-28T21:47:06.166Z,100928.55
2023-04-28T21:49:38.894Z,100925.64
2023-04-28T21:52:13.744Z,100922.80
2023-04-28T21:54:45.358Z,100921.36
2023-04-28T21:57:18.437Z,100919.77
2023-04-28T21:59:50.976Z,100916.95
2023-04-28T22:02:26.278Z,100917.05
2023-04-28T22:05:02.234Z,100916.11
2023-04-28T22:07:37.041Z,100913.60
2023-04-28T22:10:13.084Z,100909.48
2023-04-28T22:12:46.869Z,100909.10
2023-04-28T22:15:18.401Z,100907.31
2023-04-28T22:17:50.180Z,100902.11
2023-04-28T22:20:25.305Z,100898.17
2023-04-28T22:22:58.557Z,100891.98
2023-04-28T22:25:31.909Z,100890.97
2023-04-28T22:28:04.378Z,100885.93
2023-04-28T22:30:35.293Z,100886.89
2023-04-28T22:33:06.973Z,100882.80
2023-04-28T22:35:40.449Z,100880.46
2023-04-28T22:38:13.893Z,100882.02
2023-04-28T22:40:48.537Z,100881.52
2023-04-28T22:43:21.866Z,100878.91
2023-04-28T22:45:58.002Z,100876.11
2023-04-28T22:48:31.087Z,100873.65
2023-04-28T22:51:03.039Z,100877.17
2023-04-28T22:53:36.012Z,100877.25
2023-04-28T22:56:10.268Z,100874.11
2023-04-28T22:58:43.766Z,100867.42
2023-04-28T23:01:14.515Z,100872.27
2023-04-28T23:03:51.450Z,100867.70
2023-04-28T23:06:25.071Z,100866.10
2023-04-28T23:08:57.020Z,100865.64
2023-04-28T23:11:33.842Z,100866.33
2023-04-28T23:14:04.218Z,100862.31
2023-04-28T23:16:38.812Z,100861.55
2023-04-28T23:19:10.884Z,100856.88
2023-04-28T23:21:43.908Z,100854.57
2023-04-28T23:24:18.721Z,100852.40
2023-04-28T23:26:51.251Z,100845.55
2023-04-28T23:29:25.608Z,100842.32
2023-04-28T23:31:57.123Z,100835.73
2023-04-28T23:34:31.125Z,100834.03
2023-04-28T23:37:02.653Z,100827.92
2023-04-28T23:39:37.100Z,100817.92
2023-04-28T23:42:08.707Z,100817.97
2023-04-28T23:44:40.767Z,100820.66
2023-04-28T23:47:16.150Z,100815.98
2023-04-28T23:49:51.141Z,100810.83
2023-04-28T23:52:26.102Z,100811.86
2023-04-28T23:55:02.561Z,100808.23
2023-04-28T23:57:35.692Z,100802.91
